createdAt,value
2019-03-04T00:01:50.661Z,10.60
2019-03-04T00:04:19.136Z,10.73
2019-03-04T00:06:47.662Z,10.60
2019-03-04T00:09:16.122Z,10.37
2019-03-04T00:11:45.009Z,10.80
2019-03-04T00:14:13.613Z,10.63
2019-03-04T00:16:42.131Z,9.83
2019-03-04T00:19:10.613Z,10.13
2019-03-04T00:21:39.093Z,10.90
2019-03-04T00:24:07.573Z,11.13
2019-03-04T00:26:36.153Z,9.83
2019-03-04T00:29:04.438Z,13.20
2019-03-04T00:31:32.776Z,14.40
2019-03-04T00:34:01.551Z,14.53
2019-03-04T00:36:29.820Z,14.40
2019-03-04T00:38:58.156Z,15.30
2019-03-04T00:41:26.429Z,15.63
2019-03-04T00:43:54.723Z,13.07
2019-03-04T00:46:23.067Z,12.80
2019-03-04T00:48:51.379Z,12.50
2019-03-04T00:51:19.687Z,12.93
2019-03-04T00:53:47.977Z,12.47
2019-03-04T00:56:16.295Z,12.30
2019-03-04T00:58:44.653Z,11.47
2019-03-04T01:01:12.996Z,12.17
2019-03-04T01:03:41.328Z,12.57
2019-03-04T01:06:09.630Z,12.10
2019-03-04T01:08:37.930Z,12.00
2019-03-04T01:11:06.343Z,11.90
2019-03-04T01:13:34.698Z,11.70
2019-03-04T01:16:02.996Z,10.90
2019-03-04T01:18:31.275Z,10.80
2019-03-04T01:20:59.616Z,10.77
2019-03-04T01:23:27.888Z,11.53
2019-03-04T01:25:56.305Z,10.43
2019-03-04T01:28:25.005Z,10.23
2019-03-04T01:30:53.586Z,10.57
2019-03-04T01:33:22.068Z,10.27
2019-03-04T01:35:50.753Z,11.00
2019-03-04T01:38:19.117Z,10.80
2019-03-04T01:40:47.499Z,9.97
2019-03-04T01:43:16.198Z,10.70
2019-03-04T01:45:44.613Z,10.40
2019-03-04T01:48:12.939Z,10.27
2019-03-04T01:50:41.321Z,10.20
2019-03-04T01:53:09.703Z,10.07
2019-03-04T01:55:38.129Z,10.57
2019-03-04T01:58:06.576Z,10.00
2019-03-04T02:00:34.864Z,9.80
2019-03-04T02:03:03.217Z,10.03
2019-03-04T02:05:31.606Z,9.53
2019-03-04T02:08:00.477Z,10.00
2019-03-04T02:10:28.982Z,9.50
2019-03-04T02:12:57.663Z,10.33
2019-03-04T02:15:26.415Z,9.77
2019-03-04T02:17:54.817Z,9.93
2019-03-04T02:20:23.096Z,9.27
2019-03-04T02:22:51.369Z,9.90
2019-03-04T02:25:24.050Z,9.30
2019-03-04T02:27:54.078Z,9.70
2019-03-04T02:30:26.464Z,9.90
2019-03-04T02:32:55.138Z,9.43
2019-03-04T02:35:23.911Z,9.17
2019-03-04T02:37:52.294Z,9.20
2019-03-04T02:40:20.688Z,9.13
2019-03-04T02:42:49.052Z,9.17
2019-03-04T02:45:18.347Z,8.40
2019-03-04T02:47:47.037Z,9.33
2019-03-04T02:50:15.727Z,9.17
2019-03-04T02:52:44.075Z,9.37
2019-03-04T02:55:13.092Z,9.13
2019-03-04T02:57:43.209Z,9.67
2019-03-04T03:00:17.795Z,9.33
2019-03-04T03:02:46.113Z,8.90
2019-03-04T03:05:14.399Z,9.23
2019-03-04T03:07:42.774Z,9.50
2019-03-04T03:10:12.185Z,8.70
2019-03-04T03:12:40.561Z,8.60
2019-03-04T03:15:10.924Z,8.57
2019-03-04T03:17:39.366Z,8.80
2019-03-04T03:20:11.191Z,8.50
2019-03-04T03:22:39.489Z,9.03
2019-03-04T03:25:10.203Z,8.87
2019-03-04T03:27:38.604Z,8.87
2019-03-04T03:30:11.601Z,8.80
2019-03-04T03:32:39.934Z,8.67
2019-03-04T03:35:09.239Z,8.63
2019-03-04T03:37:37.561Z,8.13
2019-03-04T03:40:07.786Z,9.03
2019-03-04T03:42:36.468Z,8.33
2019-03-04T03:45:06.064Z,8.00
2019-03-04T03:47:34.451Z,9.03
2019-03-04T03:50:02.924Z,8.40
2019-03-04T03:52:31.307Z,8.63
2019-03-04T03:54:59.681Z,7.97
2019-03-04T03:57:27.950Z,8.27
2019-03-04T03:59:56.541Z,8.57
2019-03-04T04:02:25.868Z,8.53
2019-03-04T04:04:54.218Z,8.13
2019-03-04T04:07:22.507Z,8.57
2019-03-04T04:09:51.387Z,8.63
2019-03-04T04:12:19.768Z,7.73
2019-03-04T04:14:48.141Z,7.93
2019-03-04T04:17:16.523Z,8.07
2019-03-04T04:19:44.826Z,8.33
2019-03-04T04:22:13.091Z,7.73
2019-03-04T04:24:41.455Z,8.17
2019-03-04T04:27:10.871Z,8.23
2019-03-04T04:29:39.366Z,8.60
2019-03-04T04:32:07.720Z,8.03
2019-03-04T04:34:36.308Z,8.30
2019-03-04T04:37:04.677Z,8.27
2019-03-04T04:39:33.057Z,8.13
2019-03-04T04:42:01.332Z,8.60
2019-03-04T04:44:29.710Z,8.37
2019-03-04T04:46:58.082Z,7.80
2019-03-04T04:49:26.467Z,8.10
2019-03-04T04:51:55.061Z,8.00
2019-03-04T04:54:23.433Z,8.37
2019-03-04T04:56:53.501Z,8.10
2019-03-04T04:59:23.419Z,8.20
2019-03-04T05:01:52.048Z,8.17
2019-03-04T05:04:22.285Z,8.20
2019-03-04T05:06:50.549Z,7.83
2019-03-04T05:09:18.928Z,8.03
2019-03-04T05:11:47.269Z,8.30
2019-03-04T05:14:15.580Z,8.03
2019-03-04T05:16:43.932Z,8.30
2019-03-04T05:19:12.337Z,7.97
2019-03-04T05:21:40.717Z,8.00
2019-03-04T05:24:09.611Z,7.97
2019-03-04T05:26:37.988Z,8.40
2019-03-04T05:29:06.281Z,7.97
2019-03-04T05:31:34.643Z,8.10
2019-03-04T05:34:03.022Z,8.10
2019-03-04T05:36:31.607Z,7.50
2019-03-04T05:38:59.943Z,8.20
2019-03-04T05:41:30.046Z,8.53
2019-03-04T05:43:58.478Z,7.97
2019-03-04T05:46:26.860Z,8.33
2019-03-04T05:48:56.495Z,8.23
2019-03-04T05:51:24.711Z,8.30
2019-03-04T05:53:53.018Z,7.87
2019-03-04T05:56:21.287Z,8.03
2019-03-04T05:58:49.674Z,7.97
2019-03-04T06:01:20.984Z,7.93
2019-03-04T06:03:53.894Z,8.30
2019-03-04T06:06:40.399Z,7.90
2019-03-04T06:09:09.969Z,8.57
2019-03-04T06:11:38.299Z,7.63
2019-03-04T06:14:07.171Z,7.70
2019-03-04T06:16:35.568Z,8.03
2019-03-04T06:19:04.558Z,8.30
2019-03-04T06:21:32.935Z,8.00
2019-03-04T06:24:01.306Z,8.23
2019-03-04T06:26:29.686Z,7.67
2019-03-04T06:28:58.037Z,7.83
2019-03-04T06:31:28.268Z,7.70
2019-03-04T06:33:57.549Z,7.80
2019-03-04T06:36:25.902Z,7.70
2019-03-04T06:38:54.649Z,7.40
2019-03-04T06:41:23.040Z,7.50
2019-03-04T06:43:51.323Z,7.40
2019-03-04T06:46:19.795Z,7.87
2019-03-04T06:48:49.580Z,7.53
2019-03-04T06:51:19.488Z,7.73
2019-03-04T06:53:49.404Z,7.47
2019-03-04T06:56:35.736Z,7.40
2019-03-04T06:59:08.656Z,7.80
2019-03-04T07:01:38.606Z,7.97
2019-03-04T07:04:08.512Z,7.27
2019-03-04T07:06:36.804Z,7.03
2019-03-04T07:09:06.601Z,7.63
2019-03-04T07:11:36.765Z,7.67
2019-03-04T07:14:05.137Z,7.03
2019-03-04T07:16:35.240Z,7.70
2019-03-04T07:19:04.253Z,7.30
2019-03-04T07:21:32.607Z,7.87
2019-03-04T07:24:01.005Z,7.17
2019-03-04T07:26:29.393Z,7.57
2019-03-04T07:28:58.947Z,7.70
2019-03-04T07:31:27.366Z,7.37
2019-03-04T07:33:55.740Z,7.47
2019-03-04T07:36:25.360Z,7.20
2019-03-04T07:38:55.135Z,7.30
2019-03-04T07:41:23.982Z,7.27
2019-03-04T07:43:52.375Z,7.10
2019-03-04T07:46:20.654Z,7.30
2019-03-04T07:48:48.979Z,7.53
2019-03-04T07:51:17.834Z,7.20
2019-03-04T07:53:46.901Z,7.40
2019-03-04T07:56:15.559Z,7.13
2019-03-04T07:58:44.007Z,7.43
2019-03-04T08:01:13.499Z,7.27
2019-03-04T08:03:41.937Z,6.93
2019-03-04T08:06:10.254Z,7.03
2019-03-04T08:08:39.725Z,7.13
2019-03-04T08:11:26.615Z,7.00
2019-03-04T08:14:04.869Z,7.10
2019-03-04T08:16:33.000Z,6.77
2019-03-04T08:19:02.349Z,6.97
2019-03-04T08:21:30.676Z,6.77
2019-03-04T08:23:59.064Z,6.77
2019-03-04T08:26:33.425Z,6.73
2019-03-04T08:29:01.971Z,6.93
2019-03-04T08:31:30.313Z,6.93
2019-03-04T08:33:58.596Z,6.60
2019-03-04T08:36:26.994Z,7.20
2019-03-04T08:38:55.384Z,6.90
2019-03-04T08:41:23.862Z,6.90
2019-03-04T08:43:52.435Z,7.43
2019-03-04T08:46:20.815Z,6.60
2019-03-04T08:48:49.187Z,6.80
2019-03-04T08:51:17.466Z,6.80
2019-03-04T08:53:45.765Z,7.17
2019-03-04T08:56:14.230Z,6.73
2019-03-04T08:58:42.529Z,7.03
2019-03-04T09:01:12.326Z,7.20
2019-03-04T09:03:43.781Z,6.37
2019-03-04T09:06:13.110Z,6.90
2019-03-04T09:08:45.129Z,6.60
2019-03-04T09:11:13.508Z,6.97
2019-03-04T09:13:42.409Z,6.90
2019-03-04T09:16:10.776Z,6.97
2019-03-04T09:18:39.644Z,7.00
2019-03-04T09:21:08.049Z,7.67
2019-03-04T09:23:36.748Z,7.60
2019-03-04T09:26:06.661Z,6.67
2019-03-04T09:28:35.041Z,7.23
2019-03-04T09:31:03.405Z,6.37
2019-03-04T09:33:31.796Z,7.53
2019-03-04T09:36:00.490Z,6.90
2019-03-04T09:38:28.861Z,7.53
2019-03-04T09:40:57.366Z,7.03
2019-03-04T09:43:25.814Z,6.93
2019-03-04T09:45:57.565Z,7.10
2019-03-04T09:48:25.946Z,6.67
2019-03-04T09:50:54.601Z,6.80
2019-03-04T09:53:22.935Z,6.70
2019-03-04T09:55:51.403Z,6.73
2019-03-04T09:58:19.801Z,6.83
2019-03-04T10:00:49.711Z,6.23
2019-03-04T10:03:35.734Z,6.57
2019-03-04T10:06:23.869Z,6.70
2019-03-04T10:09:05.923Z,7.03
2019-03-04T10:11:35.893Z,6.60
2019-03-04T10:17:20.794Z,6.03
2019-03-04T10:20:08.557Z,5.93
2019-03-04T10:22:38.518Z,6.10
2019-03-04T10:25:14.847Z,6.87
2019-03-04T10:27:45.377Z,6.40
2019-03-04T10:30:33.261Z,6.77
2019-03-04T10:33:18.096Z,6.63
2019-03-04T10:35:48.010Z,8.13
2019-03-04T10:38:36.164Z,6.87
2019-03-04T10:41:06.077Z,6.40
2019-03-04T10:43:52.273Z,6.33
2019-03-04T10:46:24.823Z,6.53
2019-03-04T10:48:53.114Z,6.93
2019-03-04T10:51:21.578Z,6.07
2019-03-04T10:53:49.926Z,6.50
2019-03-04T10:56:19.056Z,7.60
2019-03-04T10:58:47.454Z,7.40
2019-03-04T11:01:15.796Z,6.10
2019-03-04T11:03:44.176Z,9.03
2019-03-04T11:06:12.591Z,12.27
2019-03-04T11:08:41.307Z,9.17
2019-03-04T11:11:09.619Z,8.67
2019-03-04T11:13:38.111Z,7.33
2019-03-04T11:16:06.396Z,13.57
2019-03-04T11:18:34.856Z,8.27
2019-03-04T11:21:03.353Z,11.77
2019-03-04T11:23:31.719Z,10.30
2019-03-04T11:26:00.098Z,7.57
2019-03-04T11:28:28.539Z,8.03
2019-03-04T11:30:56.953Z,9.27
2019-03-04T11:33:25.233Z,8.57
2019-03-04T11:35:53.530Z,8.27
2019-03-04T11:38:35.016Z,8.13
2019-03-04T11:41:03.780Z,8.27
2019-03-04T11:43:32.176Z,8.27
2019-03-04T11:46:00.558Z,6.80
2019-03-04T11:48:28.969Z,7.30
2019-03-04T11:50:57.262Z,8.17
2019-03-04T11:53:25.543Z,8.90
2019-03-04T11:55:53.845Z,7.33
2019-03-04T11:58:22.314Z,6.63
2019-03-04T12:01:10.295Z,8.33
2019-03-04T12:03:38.588Z,6.87
2019-03-04T12:06:07.148Z,7.47
2019-03-04T12:08:35.508Z,7.13
2019-03-04T12:11:04.274Z,7.27
2019-03-04T12:13:32.612Z,6.67
2019-03-04T12:16:00.930Z,7.27
2019-03-04T12:18:29.269Z,5.93
2019-03-04T12:20:57.709Z,6.47
2019-03-04T12:23:26.100Z,6.30
2019-03-04T12:25:54.615Z,5.53
2019-03-04T12:28:42.407Z,8.13
2019-03-04T12:31:12.049Z,5.97
2019-03-04T12:33:40.300Z,5.83
2019-03-04T12:36:08.740Z,6.67
2019-03-04T12:38:37.006Z,6.97
2019-03-04T12:41:05.396Z,6.53
2019-03-04T12:43:33.902Z,7.13
2019-03-04T12:46:02.278Z,8.03
2019-03-04T12:51:22.999Z,5.93
2019-03-04T12:53:49.945Z,6.57
2019-03-04T12:56:18.324Z,6.70
2019-03-04T12:58:47.211Z,6.20
2019-03-04T13:01:16.003Z,6.57
2019-03-04T13:03:44.483Z,6.60
2019-03-04T13:06:13.090Z,6.33
2019-03-04T13:08:41.453Z,6.27
2019-03-04T13:11:09.961Z,6.43
2019-03-04T13:13:38.326Z,6.10
2019-03-04T13:16:06.669Z,6.00
2019-03-04T13:18:35.188Z,5.57
2019-03-04T13:21:03.557Z,6.10
2019-03-04T13:23:32.091Z,5.80
2019-03-04T13:26:00.607Z,5.83
2019-03-04T13:28:29.724Z,6.13
2019-03-04T13:30:58.409Z,6.67
2019-03-04T13:33:27.091Z,6.17
2019-03-04T13:35:56.085Z,5.87
2019-03-04T13:38:24.646Z,6.77
2019-03-04T13:40:53.464Z,10.83
2019-03-04T13:43:22.041Z,8.57
2019-03-04T13:45:50.495Z,9.87
2019-03-04T13:48:19.192Z,10.57
2019-03-04T13:50:47.905Z,9.97
2019-03-04T13:53:16.871Z,10.77
2019-03-04T13:55:47.151Z,11.40
2019-03-04T13:58:17.409Z,12.57
2019-03-04T14:00:46.469Z,10.73
2019-03-04T14:03:15.624Z,11.80
2019-03-04T14:05:47.667Z,10.57
2019-03-04T14:08:16.681Z,11.20
2019-03-04T14:10:48.795Z,11.97
2019-03-04T14:13:17.440Z,10.63
2019-03-04T14:15:48.267Z,11.93
2019-03-04T14:18:16.955Z,9.60
2019-03-04T14:20:45.958Z,9.73
2019-03-04T14:23:14.638Z,9.03
2019-03-04T14:25:43.321Z,8.23
2019-03-04T14:28:11.846Z,9.33
2019-03-04T14:30:40.703Z,7.87
2019-03-04T14:33:09.144Z,7.60
2019-03-04T14:35:40.920Z,7.77
2019-03-04T14:38:09.902Z,8.10
2019-03-04T14:40:38.543Z,8.20
2019-03-04T14:43:07.811Z,6.97
2019-03-04T14:45:36.491Z,8.40
2019-03-04T14:48:06.839Z,7.63
2019-03-04T14:50:35.707Z,7.27
2019-03-04T14:53:04.394Z,7.10
2019-03-04T14:55:40.763Z,7.57
2019-03-04T14:58:09.220Z,6.70
2019-03-04T15:00:42.497Z,6.97
2019-03-04T15:03:20.611Z,6.83
2019-03-04T15:05:42.567Z,6.60
2019-03-04T15:08:11.254Z,7.20
2019-03-04T15:10:39.940Z,7.47
2019-03-04T15:13:10.001Z,6.70
2019-03-04T15:15:39.154Z,6.57
2019-03-04T15:18:10.820Z,6.53
2019-03-04T15:20:40.390Z,6.70
2019-03-04T15:23:09.207Z,6.57
2019-03-04T15:25:40.964Z,6.60
2019-03-04T15:28:22.699Z,6.43
2019-03-04T15:30:59.841Z,5.80
2019-03-04T15:33:28.616Z,8.60
2019-03-04T15:35:57.522Z,6.27
2019-03-04T15:38:26.286Z,6.30
2019-03-04T15:40:54.992Z,6.30
2019-03-04T15:43:26.649Z,6.80
2019-03-04T15:46:00.235Z,6.17
2019-03-04T15:51:19.125Z,6.63
2019-03-04T15:53:47.691Z,5.73
2019-03-04T15:56:17.366Z,10.00
2019-03-04T15:58:47.950Z,5.80
2019-03-04T16:01:17.027Z,6.00
2019-03-04T16:03:46.152Z,5.80
2019-03-04T16:06:14.802Z,5.60
2019-03-04T16:08:44.016Z,6.27
2019-03-04T16:11:12.696Z,5.87
2019-03-04T16:13:41.170Z,6.80
2019-03-04T16:16:09.764Z,8.17
2019-03-04T16:18:38.460Z,8.20
2019-03-04T16:21:07.350Z,8.10
2019-03-04T16:23:35.840Z,8.53
2019-03-04T16:26:07.564Z,9.73
2019-03-04T16:28:36.158Z,9.37
2019-03-04T16:31:04.929Z,9.40
2019-03-04T16:33:36.260Z,8.97
2019-03-04T16:36:04.567Z,10.63
2019-03-04T16:38:32.809Z,8.93
2019-03-04T16:41:01.404Z,11.67
2019-03-04T16:43:29.721Z,10.47
2019-03-04T16:45:57.947Z,9.90
2019-03-04T16:48:26.298Z,8.83
2019-03-04T16:50:54.676Z,11.10
2019-03-04T16:53:24.567Z,9.80
2019-03-04T16:55:52.865Z,9.87
2019-03-04T16:58:21.407Z,10.60
2019-03-04T17:00:50.593Z,10.10
2019-03-04T17:03:19.063Z,9.53
2019-03-04T17:05:50.978Z,9.47
2019-03-04T17:08:19.461Z,8.87
2019-03-04T17:10:47.900Z,8.93
2019-03-04T17:13:16.514Z,8.63
2019-03-04T17:15:46.044Z,8.97
2019-03-04T17:18:14.806Z,8.70
2019-03-04T17:20:43.252Z,9.07
2019-03-04T17:23:12.948Z,7.70
2019-03-04T17:25:41.477Z,7.90
2019-03-04T17:28:11.634Z,8.17
2019-03-04T17:30:40.399Z,7.77
2019-03-04T17:33:09.383Z,7.77
2019-03-04T17:35:37.937Z,8.07
2019-03-04T17:38:07.506Z,8.03
2019-03-04T17:40:36.035Z,12.70
2019-03-04T17:43:04.743Z,12.33
2019-03-04T17:45:33.833Z,12.13
2019-03-04T17:48:02.296Z,10.63
2019-03-04T17:50:42.966Z,13.73
2019-03-04T17:53:13.056Z,10.00
2019-03-04T17:55:42.304Z,10.60
2019-03-04T17:58:12.693Z,10.60
2019-03-04T18:00:42.816Z,10.87
2019-03-04T18:03:11.826Z,10.50
2019-03-04T18:05:44.825Z,15.13
2019-03-04T18:08:13.900Z,16.67
2019-03-04T18:10:42.398Z,17.67
2019-03-04T18:13:17.736Z,17.73
2019-03-04T18:15:48.066Z,15.33
2019-03-04T18:18:17.710Z,13.53
2019-03-04T18:20:46.367Z,15.07
2019-03-04T18:23:14.925Z,17.80
2019-03-04T18:25:49.569Z,15.57
2019-03-04T18:28:30.118Z,14.10
2019-03-04T18:31:29.948Z,14.97
2019-03-04T18:34:21.140Z,14.90
2019-03-04T18:37:01.004Z,15.63
2019-03-04T18:39:35.027Z,16.17
2019-03-04T18:42:23.241Z,15.20
2019-03-04T18:44:57.875Z,15.10
2019-03-04T18:47:41.713Z,15.17
2019-03-04T18:50:10.249Z,16.00
2019-03-04T18:52:38.833Z,14.80
2019-03-04T18:55:09.103Z,14.33
2019-03-04T18:57:37.578Z,14.80
2019-03-04T19:00:12.333Z,14.07
2019-03-04T19:02:44.190Z,13.33
2019-03-04T19:05:12.875Z,13.13
2019-03-04T19:07:41.437Z,12.93
2019-03-04T19:10:13.584Z,13.27
2019-03-04T19:12:42.313Z,13.23
2019-03-04T19:15:11.898Z,12.60
2019-03-04T19:17:40.480Z,12.57
2019-03-04T19:20:14.650Z,12.57
2019-03-04T19:22:43.148Z,12.37
2019-03-04T19:25:11.644Z,12.77
2019-03-04T19:27:40.236Z,13.07
2019-03-04T19:30:15.689Z,12.70
2019-03-04T19:32:44.328Z,12.27
2019-03-04T19:35:16.509Z,12.47
2019-03-04T19:37:44.916Z,12.03
2019-03-04T19:40:15.528Z,11.63
2019-03-04T19:42:44.154Z,11.77
2019-03-04T19:45:19.780Z,11.63
2019-03-04T19:47:49.444Z,11.93
2019-03-04T19:50:22.193Z,12.33
2019-03-04T19:52:50.958Z,11.13
2019-03-04T19:55:19.540Z,12.00
2019-03-04T19:57:48.232Z,11.73
2019-03-04T20:00:24.825Z,11.53
2019-03-04T20:02:53.721Z,11.93
2019-03-04T20:05:23.501Z,11.07
2019-03-04T20:07:52.214Z,11.40
2019-03-04T20:10:20.715Z,10.90
2019-03-04T20:12:49.255Z,10.93
2019-03-04T20:15:25.499Z,10.87
2019-03-04T20:17:53.960Z,10.70
2019-03-04T20:20:22.501Z,11.43
2019-03-04T20:22:51.446Z,10.77
2019-03-04T20:25:20.295Z,10.60
2019-03-04T20:27:48.769Z,10.50
2019-03-04T20:30:19.761Z,10.80
2019-03-04T20:32:48.299Z,10.97
2019-03-04T20:35:18.025Z,10.57
2019-03-04T20:37:55.684Z,10.50
2019-03-04T20:40:24.292Z,10.93
2019-03-04T20:42:52.825Z,10.03
2019-03-04T20:45:23.020Z,10.20
2019-03-04T20:47:51.559Z,10.80
2019-03-04T20:50:25.688Z,10.33
2019-03-04T20:52:54.300Z,12.50
2019-03-04T20:55:23.320Z,10.23
2019-03-04T20:57:51.804Z,10.57
2019-03-04T21:00:24.358Z,9.93
2019-03-04T21:02:52.851Z,10.23
2019-03-04T21:05:21.372Z,10.07
2019-03-04T21:07:50.056Z,10.63
2019-03-04T21:10:18.559Z,10.67
2019-03-04T21:12:47.521Z,10.50
2019-03-04T21:15:16.916Z,9.90
2019-03-04T21:17:45.256Z,10.40
2019-03-04T21:20:15.134Z,10.20
2019-03-04T21:22:43.480Z,9.97
2019-03-04T21:25:31.334Z,10.00
2019-03-04T21:27:59.632Z,10.50
2019-03-04T21:30:29.496Z,10.20
2019-03-04T21:32:57.889Z,10.10
2019-03-04T21:35:31.087Z,9.80
2019-03-04T21:37:59.391Z,10.77
2019-03-04T21:40:35.523Z,10.50
2019-03-04T21:43:05.515Z,10.13
2019-03-04T21:45:51.913Z,9.67
2019-03-04T21:48:27.831Z,9.53
2019-03-04T21:50:57.775Z,9.67
2019-03-04T21:53:28.012Z,10.13
2019-03-04T21:56:01.085Z,9.67
2019-03-04T21:58:29.380Z,10.07
2019-03-04T22:00:59.292Z,9.23
2019-03-04T22:03:27.538Z,9.57
2019-03-04T22:05:55.852Z,10.00
2019-03-04T22:08:24.069Z,10.23
2019-03-04T22:10:52.350Z,9.90
2019-03-04T22:13:20.699Z,9.03
2019-03-04T22:15:48.942Z,9.73
2019-03-04T22:18:17.180Z,8.93
2019-03-04T22:20:45.418Z,9.50
2019-03-04T22:23:13.637Z,10.03
2019-03-04T22:25:41.984Z,9.57
2019-03-04T22:28:13.220Z,9.40
2019-03-04T22:30:41.487Z,9.30
2019-03-04T22:33:09.738Z,8.93
2019-03-04T22:35:37.990Z,9.10
2019-03-04T22:38:06.211Z,9.17
2019-03-04T22:40:34.543Z,9.57
2019-03-04T22:43:02.761Z,9.57
2019-03-04T22:45:31.007Z,9.30
2019-03-04T22:47:59.238Z,10.07
2019-03-04T22:50:27.539Z,10.10
2019-03-04T22:52:55.861Z,9.73
2019-03-04T22:55:25.978Z,10.43
2019-03-04T22:57:54.207Z,9.90
2019-03-04T23:00:49.874Z,9.20
2019-03-04T23:03:18.742Z,8.83
2019-03-04T23:05:48.620Z,9.67
2019-03-04T23:08:16.883Z,10.47
2019-03-04T23:10:46.312Z,9.63
2019-03-04T23:13:31.444Z,9.37
2019-03-04T23:16:01.652Z,9.03
2019-03-04T23:18:30.342Z,9.53
2019-03-04T23:20:58.576Z,9.67
2019-03-04T23:23:26.804Z,9.43
2019-03-04T23:25:56.331Z,9.40
2019-03-04T23:28:24.811Z,13.03
2019-03-04T23:30:53.088Z,12.47
2019-03-04T23:33:21.470Z,13.40
2019-03-04T23:35:49.758Z,14.23
2019-03-04T23:38:18.352Z,15.93
2019-03-04T23:40:46.832Z,15.17
2019-03-04T23:43:15.392Z,15.77
2019-03-04T23:45:43.871Z,15.17
2019-03-04T23:48:12.368Z,15.67
2019-03-04T23:50:40.835Z,16.83
2019-03-04T23:53:09.329Z,14.90
2019-03-04T23:55:37.793Z,14.47
2019-03-04T23:58:06.284Z,14.33
